createdAt,value
2018-11-06T00:00:32.541Z,6.13
2018-11-06T00:01:32.464Z,6.13
2018-11-06T00:02:32.372Z,6.13
2018-11-06T00:03:32.295Z,6.04
2018-11-06T00:04:32.207Z,6.07
2018-11-06T00:05:32.139Z,5.99
2018-11-06T00:06:32.050Z,6.08
2018-11-06T00:07:31.980Z,6.14
2018-11-06T00:08:31.892Z,6.06
2018-11-06T00:09:31.819Z,6.13
2018-11-06T00:10:31.727Z,6.08
2018-11-06T00:11:31.697Z,6.04
2018-11-06T00:12:31.569Z,6.08
2018-11-06T00:13:31.493Z,6.07
2018-11-06T00:14:31.406Z,6.07
2018-11-06T00:15:31.332Z,6.13
2018-11-06T00:16:31.250Z,5.93
2018-11-06T00:17:31.175Z,5.92
2018-11-06T00:18:31.079Z,5.80
2018-11-06T00:19:31.008Z,5.83
2018-11-06T00:20:30.921Z,5.85
2018-11-06T00:21:30.857Z,5.81
2018-11-06T00:22:30.761Z,5.81
2018-11-06T00:23:30.688Z,5.67
2018-11-06T00:24:30.601Z,5.68
2018-11-06T00:25:30.529Z,5.71
2018-11-06T00:26:30.438Z,5.60
2018-11-06T00:27:30.370Z,5.70
2018-11-06T00:28:30.279Z,5.70
2018-11-06T00:29:30.205Z,5.57
2018-11-06T00:30:30.117Z,5.57
2018-11-06T00:31:30.046Z,5.68
2018-11-06T00:32:29.954Z,5.75
2018-11-06T00:33:29.885Z,5.70
2018-11-06T00:34:29.794Z,5.65
2018-11-06T00:35:29.725Z,5.67
2018-11-06T00:36:29.633Z,5.68
2018-11-06T00:37:29.563Z,5.70
2018-11-06T00:38:29.467Z,5.77
2018-11-06T00:39:29.398Z,5.80
2018-11-06T00:40:29.309Z,5.83
2018-11-06T00:41:29.237Z,5.85
2018-11-06T00:42:29.154Z,5.85
2018-11-06T00:43:29.074Z,5.80
2018-11-06T00:44:28.985Z,5.86
2018-11-06T00:45:28.915Z,5.90
2018-11-06T00:46:28.822Z,5.80
2018-11-06T00:47:28.750Z,5.80
2018-11-06T00:48:28.662Z,5.83
2018-11-06T00:49:28.590Z,5.70
2018-11-06T00:50:28.498Z,5.74
2018-11-06T00:51:28.432Z,5.77
2018-11-06T00:52:28.343Z,5.77
2018-11-06T00:53:28.270Z,5.77
2018-11-06T00:54:28.177Z,5.86
2018-11-06T00:55:28.110Z,5.77
2018-11-06T00:56:28.013Z,5.78
2018-11-06T00:57:27.944Z,5.77
2018-11-06T00:58:27.854Z,5.71
2018-11-06T00:59:27.782Z,5.68
2018-11-06T01:00:27.694Z,5.75
2018-11-06T01:01:27.615Z,5.70
2018-11-06T01:02:27.531Z,5.70
2018-11-06T01:03:27.458Z,5.59
2018-11-06T01:04:27.372Z,5.57
2018-11-06T01:05:27.295Z,5.63
2018-11-06T01:06:27.209Z,5.54
2018-11-06T01:07:27.139Z,5.63
2018-11-06T01:08:27.055Z,5.63
2018-11-06T01:09:26.980Z,5.54
2018-11-06T01:10:26.882Z,5.56
2018-11-06T01:11:26.809Z,5.57
2018-11-06T01:12:26.723Z,5.67
2018-11-06T01:13:26.654Z,5.72
2018-11-06T01:14:26.562Z,5.72
2018-11-06T01:15:26.490Z,5.71
2018-11-06T01:16:26.406Z,5.74
2018-11-06T01:17:26.329Z,5.72
2018-11-06T01:18:26.240Z,5.80
2018-11-06T01:19:26.164Z,5.86
2018-11-06T01:20:26.079Z,5.77
2018-11-06T01:21:26.004Z,5.74
2018-11-06T01:22:25.914Z,5.71
2018-11-06T01:23:25.843Z,5.81
2018-11-06T01:24:25.754Z,5.74
2018-11-06T01:25:25.681Z,5.72
2018-11-06T01:26:25.590Z,5.62
2018-11-06T01:27:25.518Z,5.59
2018-11-06T01:28:25.432Z,5.60
2018-11-06T01:29:25.360Z,5.63
2018-11-06T01:30:25.266Z,5.63
2018-11-06T01:31:25.200Z,5.59
2018-11-06T01:32:25.109Z,5.57
2018-11-06T01:33:25.036Z,5.70
2018-11-06T01:34:24.945Z,5.56
2018-11-06T01:35:24.877Z,5.59
2018-11-06T01:36:24.784Z,5.62
2018-11-06T01:37:24.711Z,5.62
2018-11-06T01:38:24.619Z,5.72
2018-11-06T01:39:24.553Z,5.67
2018-11-06T01:40:24.460Z,5.63
2018-11-06T01:41:24.389Z,5.72
2018-11-06T01:42:24.300Z,5.60
2018-11-06T01:43:24.225Z,5.63
2018-11-06T01:44:24.134Z,5.57
2018-11-06T01:45:24.065Z,5.59
2018-11-06T01:46:23.975Z,5.50
2018-11-06T01:47:23.902Z,5.53
2018-11-06T01:48:23.813Z,5.56
2018-11-06T01:49:23.745Z,5.56
2018-11-06T01:50:23.653Z,5.54
2018-11-06T01:51:23.580Z,5.54
2018-11-06T01:52:23.492Z,5.54
2018-11-06T01:53:23.416Z,5.57
2018-11-06T01:54:23.330Z,5.57
2018-11-06T01:55:23.256Z,5.57
2018-11-06T01:56:23.167Z,5.53
2018-11-06T01:57:23.097Z,5.54
2018-11-06T01:58:23.004Z,5.59
2018-11-06T01:59:22.933Z,5.50
2018-11-06T02:00:22.844Z,5.56
2018-11-06T02:01:22.772Z,5.44
2018-11-06T02:02:22.680Z,5.52
2018-11-06T02:03:22.608Z,5.59
2018-11-06T02:04:22.519Z,5.47
2018-11-06T02:05:22.446Z,5.53
2018-11-06T02:06:22.358Z,5.56
2018-11-06T02:07:22.280Z,5.59
2018-11-06T02:08:22.197Z,5.63
2018-11-06T02:09:22.125Z,5.53
2018-11-06T02:10:22.034Z,5.65
2018-11-06T02:11:21.964Z,5.65
2018-11-06T02:12:21.869Z,5.71
2018-11-06T02:13:21.802Z,5.65
2018-11-06T02:14:21.711Z,5.67
2018-11-06T02:15:21.636Z,5.70
2018-11-06T02:16:21.549Z,5.63
2018-11-06T02:17:21.474Z,5.54
2018-11-06T02:18:21.390Z,5.59
2018-11-06T02:19:21.310Z,5.35
2018-11-06T02:20:21.224Z,5.28
2018-11-06T02:21:21.152Z,5.29
2018-11-06T02:22:21.062Z,5.21
2018-11-06T02:23:20.990Z,5.17
2018-11-06T02:24:20.901Z,5.17
2018-11-06T02:25:20.826Z,5.17
2018-11-06T02:26:20.734Z,5.24
2018-11-06T02:27:20.669Z,5.31
2018-11-06T02:28:20.577Z,5.31
2018-11-06T02:29:20.504Z,5.34
2018-11-06T02:30:20.415Z,5.35
2018-11-06T02:31:20.349Z,5.36
2018-11-06T02:32:20.265Z,5.38
2018-11-06T02:33:20.180Z,5.45
2018-11-06T02:34:20.091Z,5.56
2018-11-06T02:35:20.016Z,5.57
2018-11-06T02:36:19.931Z,5.42
2018-11-06T02:37:19.858Z,5.28
2018-11-06T02:38:19.768Z,5.18
2018-11-06T02:39:19.697Z,5.10
2018-11-06T02:40:19.606Z,5.08
2018-11-06T02:41:19.538Z,5.13
2018-11-06T02:42:19.442Z,5.10
2018-11-06T02:43:19.368Z,5.14
2018-11-06T02:44:19.279Z,5.26
2018-11-06T02:45:19.210Z,5.24
2018-11-06T02:46:19.132Z,5.29
2018-11-06T02:47:19.042Z,5.28
2018-11-06T02:48:18.957Z,5.35
2018-11-06T02:49:18.885Z,5.38
2018-11-06T02:50:18.797Z,5.28
2018-11-06T02:51:18.719Z,5.35
2018-11-06T02:52:18.632Z,5.32
2018-11-06T02:53:18.558Z,5.23
2018-11-06T02:54:18.468Z,5.11
2018-11-06T02:55:18.404Z,5.03
2018-11-06T02:56:18.308Z,5.03
2018-11-06T02:57:18.232Z,5.06
2018-11-06T02:58:18.145Z,5.05
2018-11-06T02:59:18.076Z,5.11
2018-11-06T03:00:17.987Z,5.11
2018-11-06T03:01:17.908Z,5.14
2018-11-06T03:02:17.820Z,5.14
2018-11-06T03:03:17.748Z,5.17
2018-11-06T03:04:17.659Z,5.14
2018-11-06T03:05:17.584Z,5.20
2018-11-06T03:06:17.497Z,5.16
2018-11-06T03:07:17.424Z,5.17
2018-11-06T03:08:17.331Z,5.13
2018-11-06T03:09:17.265Z,5.13
2018-11-06T03:10:17.244Z,5.10
2018-11-06T03:11:17.097Z,5.08
2018-11-06T03:12:17.011Z,5.05
2018-11-06T03:13:16.936Z,4.95
2018-11-06T03:14:16.851Z,4.99
2018-11-06T03:15:16.772Z,4.95
2018-11-06T03:16:16.685Z,4.83
2018-11-06T03:17:16.611Z,4.87
2018-11-06T03:18:16.523Z,4.85
2018-11-06T03:19:16.447Z,4.80
2018-11-06T03:20:16.360Z,4.72
2018-11-06T03:21:16.289Z,4.85
2018-11-06T03:22:16.199Z,4.84
2018-11-06T03:23:16.128Z,4.84
2018-11-06T03:24:16.036Z,4.93
2018-11-06T03:25:15.964Z,5.03
2018-11-06T03:26:15.874Z,5.00
2018-11-06T03:27:15.805Z,5.02
2018-11-06T03:28:15.711Z,5.11
2018-11-06T03:29:15.636Z,5.02
2018-11-06T03:30:15.551Z,5.08
2018-11-06T03:31:15.478Z,5.08
2018-11-06T03:32:15.385Z,5.08
2018-11-06T03:33:15.313Z,5.05
2018-11-06T03:34:15.222Z,5.08
2018-11-06T03:35:15.154Z,5.02
2018-11-06T03:36:15.063Z,4.95
2018-11-06T03:37:14.990Z,5.00
2018-11-06T03:38:14.903Z,4.87
2018-11-06T03:39:14.825Z,4.87
2018-11-06T03:40:14.736Z,4.99
2018-11-06T03:41:14.667Z,4.96
2018-11-06T03:42:14.583Z,4.88
2018-11-06T03:43:14.502Z,4.95
2018-11-06T03:44:14.410Z,4.87
2018-11-06T03:45:14.336Z,4.84
2018-11-06T03:46:14.247Z,4.88
2018-11-06T03:47:14.177Z,4.95
2018-11-06T03:48:14.088Z,4.93
2018-11-06T03:49:14.013Z,4.85
2018-11-06T03:50:13.921Z,4.84
2018-11-06T03:51:13.853Z,4.87
2018-11-06T03:52:13.760Z,4.85
2018-11-06T03:53:13.690Z,4.83
2018-11-06T03:54:13.596Z,4.72
2018-11-06T03:55:13.529Z,4.74
2018-11-06T03:56:13.437Z,4.65
2018-11-06T03:57:13.360Z,4.65
2018-11-06T03:58:13.274Z,4.64
2018-11-06T03:59:13.200Z,4.74
2018-11-06T04:00:13.112Z,4.73
2018-11-06T04:01:13.039Z,4.68
2018-11-06T04:02:12.948Z,4.65
2018-11-06T04:03:12.880Z,4.66
2018-11-06T04:04:12.790Z,4.62
2018-11-06T04:05:12.719Z,4.76
2018-11-06T04:06:12.618Z,4.64
2018-11-06T04:07:12.550Z,4.73
2018-11-06T04:08:12.457Z,4.77
2018-11-06T04:09:12.393Z,4.77
2018-11-06T04:10:12.297Z,4.74
2018-11-06T04:11:12.223Z,4.76
2018-11-06T04:12:12.135Z,4.76
2018-11-06T04:13:12.060Z,4.80
2018-11-06T04:14:11.969Z,4.85
2018-11-06T04:15:11.902Z,4.73
2018-11-06T04:16:11.810Z,4.64
2018-11-06T04:17:11.739Z,4.54
2018-11-06T04:18:11.646Z,4.48
2018-11-06T04:19:11.575Z,4.37
2018-11-06T04:20:11.483Z,4.40
2018-11-06T04:21:11.409Z,4.32
2018-11-06T04:22:11.320Z,4.38
2018-11-06T04:23:11.247Z,4.40
2018-11-06T04:24:11.158Z,4.32
2018-11-06T04:25:11.089Z,4.36
2018-11-06T04:26:10.996Z,4.41
2018-11-06T04:27:10.924Z,4.40
2018-11-06T04:28:10.834Z,4.46
2018-11-06T04:29:10.763Z,4.54
2018-11-06T04:30:10.733Z,4.55
2018-11-06T04:31:10.598Z,4.58
2018-11-06T04:32:10.508Z,4.61
2018-11-06T04:33:10.435Z,4.56
2018-11-06T04:34:10.344Z,4.61
2018-11-06T04:35:10.272Z,4.55
2018-11-06T04:36:10.182Z,4.59
2018-11-06T04:37:10.112Z,4.61
2018-11-06T04:38:10.019Z,4.58
2018-11-06T04:39:09.943Z,4.58
2018-11-06T04:40:09.857Z,4.62
2018-11-06T04:41:09.796Z,4.61
2018-11-06T04:42:09.695Z,4.58
2018-11-06T04:43:09.617Z,4.55
2018-11-06T04:44:09.533Z,4.43
2018-11-06T04:45:09.458Z,4.44
2018-11-06T04:46:09.374Z,4.44
2018-11-06T04:47:09.312Z,4.43
2018-11-06T04:48:09.206Z,4.41
2018-11-06T04:49:09.223Z,4.43
2018-11-06T04:50:09.048Z,4.46
2018-11-06T04:51:08.976Z,4.47
2018-11-06T04:52:08.881Z,4.50
2018-11-06T04:53:08.840Z,4.46
2018-11-06T04:54:08.714Z,4.46
2018-11-06T04:55:08.747Z,4.50
2018-11-06T04:56:08.551Z,4.55
2018-11-06T04:57:08.561Z,4.58
2018-11-06T04:58:08.389Z,4.58
2018-11-06T04:59:08.367Z,4.54
2018-11-06T05:00:08.231Z,4.46
2018-11-06T05:01:08.174Z,4.46
2018-11-06T05:02:08.159Z,4.48
2018-11-06T05:03:08.086Z,4.54
2018-11-06T05:04:07.901Z,4.44
2018-11-06T05:05:07.894Z,4.37
2018-11-06T05:06:07.738Z,4.32
2018-11-06T05:07:07.702Z,4.34
2018-11-06T05:08:07.573Z,4.36
2018-11-06T05:09:07.516Z,4.37
2018-11-06T05:10:07.412Z,4.37
2018-11-06T05:11:07.423Z,4.34
2018-11-06T05:12:07.250Z,4.40
2018-11-06T05:13:07.228Z,4.36
2018-11-06T05:14:07.146Z,4.38
2018-11-06T05:15:07.041Z,4.37
2018-11-06T05:16:06.924Z,4.50
2018-11-06T05:17:06.975Z,4.43
2018-11-06T05:18:06.761Z,4.47
2018-11-06T05:19:06.758Z,4.46
2018-11-06T05:20:06.598Z,4.52
2018-11-06T05:21:06.566Z,4.56
2018-11-06T05:22:06.435Z,4.56
2018-11-06T05:23:06.376Z,4.58
2018-11-06T05:24:06.275Z,4.61
2018-11-06T05:25:06.286Z,4.59
2018-11-06T05:26:06.141Z,4.65
2018-11-06T05:27:06.098Z,4.58
2018-11-06T05:28:06.085Z,4.56
2018-11-06T05:29:05.903Z,4.55
2018-11-06T05:30:05.866Z,4.52
2018-11-06T05:31:05.815Z,4.44
2018-11-06T05:32:05.728Z,4.40
2018-11-06T05:33:05.545Z,4.41
2018-11-06T05:34:05.508Z,4.37
2018-11-06T05:35:05.432Z,4.34
2018-11-06T05:36:05.291Z,4.37
2018-11-06T05:37:05.241Z,4.32
2018-11-06T05:38:05.128Z,4.29
2018-11-06T05:39:05.163Z,4.30
2018-11-06T05:40:04.966Z,4.26
2018-11-06T05:41:04.891Z,4.30
2018-11-06T05:42:04.801Z,4.20
2018-11-06T05:43:05.539Z,4.20
2018-11-06T05:44:04.733Z,4.22
2018-11-06T05:45:04.558Z,4.22
2018-11-06T05:46:04.536Z,4.22
2018-11-06T05:47:04.395Z,4.28
2018-11-06T05:48:04.449Z,4.20
2018-11-06T05:49:04.236Z,4.19
2018-11-06T05:50:04.244Z,4.22
2018-11-06T05:51:04.067Z,4.23
2018-11-06T05:52:04.006Z,4.19
2018-11-06T05:53:04.010Z,4.16
2018-11-06T05:54:03.920Z,4.05
2018-11-06T05:55:03.742Z,4.11
2018-11-06T05:56:03.726Z,4.10
2018-11-06T05:57:03.580Z,4.07
2018-11-06T05:58:03.504Z,4.12
2018-11-06T05:59:03.413Z,4.12
2018-11-06T06:00:03.444Z,4.08
2018-11-06T06:01:03.254Z,4.19
2018-11-06T06:02:03.255Z,4.15
2018-11-06T06:03:03.092Z,4.22
2018-11-06T06:04:03.061Z,4.05
2018-11-06T06:05:02.925Z,4.11
2018-11-06T06:06:02.843Z,4.12
2018-11-06T06:07:02.940Z,4.16
2018-11-06T06:08:02.681Z,4.12
2018-11-06T06:09:02.756Z,4.20
2018-11-06T06:10:02.516Z,4.19
2018-11-06T06:11:02.555Z,4.19
2018-11-06T06:12:02.356Z,4.28
2018-11-06T06:13:02.302Z,4.18
2018-11-06T06:14:02.186Z,4.25
2018-11-06T06:15:02.215Z,4.23
2018-11-06T06:16:02.026Z,4.18
2018-11-06T06:17:02.072Z,4.23
2018-11-06T06:18:01.865Z,4.20
2018-11-06T06:19:01.836Z,4.20
2018-11-06T06:20:01.705Z,4.18
2018-11-06T06:21:01.640Z,4.22
2018-11-06T06:22:01.537Z,4.20
2018-11-06T06:23:01.549Z,4.22
2018-11-06T06:24:01.376Z,4.28
2018-11-06T06:25:01.361Z,4.18
2018-11-06T06:26:01.209Z,4.25
2018-11-06T06:27:01.168Z,4.19
2018-11-06T06:28:01.048Z,4.11
2018-11-06T06:29:00.976Z,4.11
2018-11-06T06:30:00.884Z,4.11
2018-11-06T06:31:00.886Z,4.11
2018-11-06T06:32:00.725Z,4.11
2018-11-06T06:33:00.696Z,4.15
2018-11-06T06:34:00.558Z,4.08
2018-11-06T06:35:00.523Z,4.18
2018-11-06T06:36:00.404Z,4.11
2018-11-06T06:37:00.415Z,4.15
2018-11-06T06:38:00.233Z,4.15
2018-11-06T06:39:00.223Z,4.04
2018-11-06T06:40:00.088Z,4.16
2018-11-06T06:41:00.099Z,4.08
2018-11-06T06:41:59.905Z,4.08
2018-11-06T06:42:59.839Z,4.11
2018-11-06T06:43:59.740Z,4.22
2018-11-06T06:44:59.750Z,4.20
2018-11-06T06:45:59.575Z,4.19
2018-11-06T06:46:59.558Z,4.25
2018-11-06T06:47:59.416Z,4.36
2018-11-06T06:48:59.367Z,4.30
2018-11-06T06:49:59.250Z,4.32
2018-11-06T06:50:59.278Z,4.32
2018-11-06T06:51:59.088Z,4.36
2018-11-06T06:52:59.085Z,4.40
2018-11-06T06:53:58.996Z,4.41
2018-11-06T06:54:58.995Z,4.38
2018-11-06T06:55:58.762Z,4.44
2018-11-06T06:56:58.703Z,4.52
2018-11-06T06:57:58.596Z,4.58
2018-11-06T06:58:58.614Z,4.69
2018-11-06T06:59:58.432Z,4.68
2018-11-06T07:00:58.425Z,4.84
2018-11-06T07:01:58.269Z,4.85
2018-11-06T07:02:58.230Z,5.08
2018-11-06T07:03:58.106Z,5.23
2018-11-06T07:04:58.142Z,5.35
2018-11-06T07:05:57.942Z,5.44
2018-11-06T07:06:57.949Z,5.56
2018-11-06T07:07:57.779Z,5.68
2018-11-06T07:08:57.758Z,5.88
2018-11-06T07:09:57.624Z,6.08
2018-11-06T07:10:57.567Z,6.32
2018-11-06T07:11:57.454Z,6.47
2018-11-06T07:12:57.491Z,6.66
2018-11-06T07:13:57.289Z,6.83
2018-11-06T07:14:57.288Z,7.06
2018-11-06T07:15:57.128Z,7.20
2018-11-06T07:16:57.096Z,7.27
2018-11-06T07:17:56.961Z,7.38
2018-11-06T07:18:56.903Z,7.45
2018-11-06T07:19:56.804Z,7.64
2018-11-06T07:20:56.813Z,7.64
2018-11-06T07:21:56.640Z,7.67
2018-11-06T07:22:56.628Z,7.81
2018-11-06T07:23:56.485Z,7.90
2018-11-06T07:24:56.430Z,7.99
2018-11-06T07:25:56.320Z,8.06
2018-11-06T07:26:56.351Z,8.17
2018-11-06T07:27:56.153Z,8.27
2018-11-06T07:28:56.228Z,8.29
2018-11-06T07:29:55.994Z,8.39
2018-11-06T07:30:55.960Z,8.47
2018-11-06T07:31:55.836Z,8.51
2018-11-06T07:32:55.766Z,8.68
2018-11-06T07:33:55.669Z,8.62
2018-11-06T07:34:55.836Z,8.77
2018-11-06T07:35:55.676Z,8.88
2018-11-06T07:36:55.488Z,8.88
2018-11-06T07:37:55.346Z,8.91
2018-11-06T07:38:55.295Z,9.03
2018-11-06T07:39:55.188Z,9.02
2018-11-06T07:40:55.248Z,9.05
2018-11-06T07:41:55.025Z,9.16
2018-11-06T07:42:55.014Z,9.22
2018-11-06T07:43:54.861Z,9.20
2018-11-06T07:44:54.822Z,9.34
2018-11-06T07:45:54.699Z,9.40
2018-11-06T07:46:54.735Z,9.50
2018-11-06T07:47:54.545Z,9.65
2018-11-06T07:48:54.541Z,9.60
2018-11-06T07:49:54.449Z,9.74
2018-11-06T07:50:54.350Z,9.88
2018-11-06T07:51:54.224Z,10.00
2018-11-06T07:52:54.259Z,10.13
2018-11-06T07:53:54.064Z,10.23
2018-11-06T07:54:54.068Z,10.41
2018-11-06T07:55:53.992Z,10.58
2018-11-06T07:56:53.879Z,10.73
2018-11-06T07:57:53.741Z,10.77
2018-11-06T07:58:53.686Z,10.84
2018-11-06T07:59:53.584Z,10.88
2018-11-06T08:00:53.596Z,10.85
2018-11-06T08:01:53.425Z,10.96
2018-11-06T08:02:53.406Z,11.03
2018-11-06T08:03:53.269Z,11.00
2018-11-06T08:04:53.218Z,11.00
2018-11-06T08:05:53.112Z,11.02
2018-11-06T08:06:53.129Z,11.05
2018-11-06T08:07:52.950Z,10.98
2018-11-06T08:08:53.033Z,11.00
2018-11-06T08:09:52.797Z,10.99
2018-11-06T08:10:52.743Z,11.05
2018-11-06T08:11:52.631Z,11.17
2018-11-06T08:12:52.653Z,11.17
2018-11-06T08:13:52.470Z,11.24
2018-11-06T08:14:52.522Z,11.34
2018-11-06T08:15:52.319Z,11.36
2018-11-06T08:16:52.273Z,11.34
2018-11-06T08:17:52.180Z,11.32
2018-11-06T08:18:52.187Z,11.32
2018-11-06T08:19:51.996Z,11.34
2018-11-06T08:20:51.990Z,11.39
2018-11-06T08:21:51.839Z,11.43
2018-11-06T08:22:51.799Z,11.38
2018-11-06T08:23:51.809Z,11.51
2018-11-06T08:24:52.634Z,11.53
2018-11-06T08:25:51.521Z,11.64
2018-11-06T08:26:52.543Z,11.61
2018-11-06T08:27:51.412Z,11.67
2018-11-06T08:28:52.352Z,11.67
2018-11-06T08:29:51.204Z,11.90
2018-11-06T08:30:51.417Z,11.87
2018-11-06T08:31:51.282Z,11.83
2018-11-06T08:32:51.319Z,12.00
2018-11-06T08:33:50.895Z,12.06
2018-11-06T08:34:50.855Z,12.13
2018-11-06T08:35:50.734Z,12.27
2018-11-06T08:36:50.803Z,12.31
2018-11-06T08:37:50.583Z,12.46
2018-11-06T08:38:50.573Z,12.52
2018-11-06T08:39:50.419Z,12.52
2018-11-06T08:40:50.383Z,12.60
2018-11-06T08:41:50.259Z,12.45
2018-11-06T08:42:50.292Z,12.44
2018-11-06T08:43:50.106Z,12.53
2018-11-06T08:44:50.099Z,12.49
2018-11-06T08:45:49.952Z,12.46
2018-11-06T08:46:49.909Z,12.48
2018-11-06T08:47:49.790Z,12.42
2018-11-06T08:48:49.821Z,12.46
2018-11-06T08:49:49.637Z,12.48
2018-11-06T08:50:49.630Z,12.46
2018-11-06T08:51:49.486Z,12.45
2018-11-06T08:52:49.438Z,12.39
2018-11-06T08:53:49.321Z,12.42
2018-11-06T08:54:49.350Z,12.33
2018-11-06T08:55:49.167Z,12.23
2018-11-06T08:56:49.155Z,12.26
2018-11-06T08:57:49.012Z,12.28
2018-11-06T08:58:48.959Z,12.41
2018-11-06T08:59:48.854Z,12.51
2018-11-06T09:00:48.876Z,12.59
2018-11-06T09:01:48.698Z,12.60
2018-11-06T09:02:48.681Z,12.64
2018-11-06T09:03:48.542Z,12.85
2018-11-06T09:04:48.492Z,13.03
2018-11-06T09:05:48.382Z,13.17
2018-11-06T09:06:48.402Z,13.28
2018-11-06T09:07:48.229Z,13.38
2018-11-06T09:08:48.249Z,13.58
2018-11-06T09:09:48.074Z,13.55
2018-11-06T09:10:48.021Z,13.71
2018-11-06T09:11:47.914Z,13.66
2018-11-06T09:12:47.929Z,13.89
2018-11-06T09:13:47.763Z,13.86
2018-11-06T09:14:47.739Z,13.91
2018-11-06T09:15:47.607Z,13.96
2018-11-06T09:16:47.568Z,14.07
2018-11-06T09:17:47.451Z,14.16
2018-11-06T09:18:47.458Z,14.19
2018-11-06T09:19:47.301Z,14.27
2018-11-06T09:20:47.269Z,14.32
2018-11-06T09:21:47.144Z,14.46
2018-11-06T09:22:47.175Z,14.49
2018-11-06T09:23:46.990Z,14.59
2018-11-06T09:24:46.985Z,14.67
2018-11-06T09:25:46.832Z,14.83
2018-11-06T09:26:46.795Z,14.85
2018-11-06T09:27:46.673Z,15.05
2018-11-06T09:28:46.706Z,15.10
2018-11-06T09:29:46.523Z,15.16
2018-11-06T09:30:46.516Z,15.18
2018-11-06T09:31:46.372Z,15.38
2018-11-06T09:32:46.321Z,15.41
2018-11-06T09:33:46.220Z,15.52
2018-11-06T09:34:46.231Z,15.61
2018-11-06T09:35:46.060Z,15.66
2018-11-06T09:36:46.038Z,15.70
2018-11-06T09:37:45.908Z,15.79
2018-11-06T09:38:45.850Z,15.96
2018-11-06T09:39:45.756Z,16.03
2018-11-06T09:40:45.685Z,16.06
2018-11-06T09:41:45.603Z,16.12
2018-11-06T09:42:45.570Z,16.26
2018-11-06T09:43:45.451Z,16.35
2018-11-06T09:44:45.479Z,16.40
2018-11-06T09:45:45.297Z,16.57
2018-11-06T09:46:45.290Z,16.60
2018-11-06T09:47:45.142Z,16.75
2018-11-06T09:48:45.115Z,16.71
2018-11-06T09:49:44.988Z,16.75
2018-11-06T09:50:45.008Z,16.88
2018-11-06T09:51:44.869Z,16.92
2018-11-06T09:52:44.816Z,16.84
2018-11-06T09:53:44.682Z,16.92
2018-11-06T09:54:44.726Z,17.02
2018-11-06T09:55:44.539Z,16.93
2018-11-06T09:56:44.537Z,17.07
2018-11-06T09:57:44.379Z,17.17
2018-11-06T09:58:44.342Z,17.05
2018-11-06T09:59:44.229Z,17.18
2018-11-06T10:00:44.254Z,17.20
2018-11-06T10:01:44.078Z,17.20
2018-11-06T10:02:44.062Z,17.23
2018-11-06T10:03:43.927Z,17.28
2018-11-06T10:04:43.874Z,17.30
2018-11-06T10:05:43.775Z,17.43
2018-11-06T10:06:44.027Z,17.53
2018-11-06T10:07:43.657Z,17.48
2018-11-06T10:08:43.590Z,17.47
2018-11-06T10:09:43.469Z,17.54
2018-11-06T10:10:43.503Z,17.66
2018-11-06T10:11:43.323Z,17.63
2018-11-06T10:12:43.311Z,17.51
2018-11-06T10:13:43.169Z,17.67
2018-11-06T10:14:43.121Z,17.58
2018-11-06T10:15:43.110Z,17.58
2018-11-06T10:16:43.030Z,17.67
2018-11-06T10:17:42.867Z,17.70
2018-11-06T10:18:42.837Z,17.76
2018-11-06T10:19:42.719Z,17.77
2018-11-06T10:20:42.750Z,17.89
2018-11-06T10:21:42.571Z,17.92
2018-11-06T10:22:42.556Z,17.87
2018-11-06T10:23:42.419Z,18.09
2018-11-06T10:24:43.082Z,17.96
2018-11-06T10:25:42.269Z,18.19
2018-11-06T10:26:42.275Z,18.09
2018-11-06T10:27:42.118Z,18.03
2018-11-06T10:28:42.084Z,18.11
2018-11-06T10:29:41.968Z,18.14
2018-11-06T10:30:42.051Z,18.07
2018-11-06T10:31:41.820Z,18.07
2018-11-06T10:32:41.803Z,18.09
2018-11-06T10:33:41.668Z,18.13
2018-11-06T10:34:41.612Z,18.18
2018-11-06T10:35:41.521Z,18.16
2018-11-06T10:36:41.523Z,18.11
2018-11-06T10:37:41.370Z,18.13
2018-11-06T10:38:41.335Z,18.18
2018-11-06T10:39:41.221Z,18.25
2018-11-06T10:40:41.243Z,18.22
2018-11-06T10:41:41.072Z,18.25
2018-11-06T10:42:41.052Z,18.34
2018-11-06T10:43:40.963Z,18.29
2018-11-06T10:44:40.965Z,18.32
2018-11-06T10:45:40.773Z,18.40
2018-11-06T10:46:40.769Z,18.34
2018-11-06T10:47:40.630Z,18.42
2018-11-06T10:48:40.580Z,18.28
2018-11-06T10:49:40.476Z,18.24
2018-11-06T10:50:40.540Z,18.25
2018-11-06T10:51:40.337Z,18.24
2018-11-06T10:52:40.300Z,18.18
2018-11-06T10:53:40.184Z,18.19
2018-11-06T10:54:40.210Z,18.11
2018-11-06T10:55:40.031Z,18.00
2018-11-06T10:56:40.018Z,17.77
2018-11-06T10:57:39.879Z,17.70
2018-11-06T10:58:39.826Z,17.71
2018-11-06T10:59:39.734Z,17.64
2018-11-06T11:00:39.737Z,17.63
2018-11-06T11:01:39.583Z,17.57
2018-11-06T11:02:39.546Z,17.57
2018-11-06T11:03:39.435Z,17.58
2018-11-06T11:04:39.457Z,17.46
2018-11-06T11:05:39.284Z,17.48
2018-11-06T11:06:39.272Z,17.54
2018-11-06T11:07:39.139Z,17.57
2018-11-06T11:08:39.176Z,17.58
2018-11-06T11:09:38.988Z,17.73
2018-11-06T11:10:38.983Z,17.64
2018-11-06T11:11:38.842Z,17.70
2018-11-06T11:12:38.984Z,17.70
2018-11-06T11:13:38.737Z,17.77
2018-11-06T11:14:38.704Z,17.84
2018-11-06T11:15:38.540Z,17.91
2018-11-06T11:16:38.513Z,17.92
2018-11-06T11:17:38.388Z,17.89
2018-11-06T11:18:38.427Z,17.98
2018-11-06T11:19:38.241Z,17.91
2018-11-06T11:20:38.234Z,18.00
2018-11-06T11:21:38.092Z,17.94
2018-11-06T11:22:38.091Z,18.04
2018-11-06T11:23:37.946Z,17.98
2018-11-06T11:24:37.956Z,18.02
2018-11-06T11:25:37.820Z,17.94
2018-11-06T11:26:37.762Z,17.98
2018-11-06T11:27:37.646Z,18.13
2018-11-06T11:28:37.668Z,18.22
2018-11-06T11:29:37.502Z,18.18
2018-11-06T11:30:37.480Z,18.24
2018-11-06T11:31:37.348Z,18.21
2018-11-06T11:32:37.390Z,18.25
2018-11-06T11:33:37.208Z,18.29
2018-11-06T11:34:37.199Z,18.18
2018-11-06T11:35:37.056Z,18.11
2018-11-06T11:36:37.007Z,18.03
2018-11-06T11:37:36.959Z,18.09
2018-11-06T11:38:36.923Z,18.04
2018-11-06T11:39:36.754Z,18.03
2018-11-06T11:40:36.728Z,17.91
2018-11-06T11:41:36.606Z,17.92
2018-11-06T11:42:36.637Z,18.02
2018-11-06T11:43:36.461Z,17.88
2018-11-06T11:44:36.445Z,17.92
2018-11-06T11:45:36.356Z,17.87
2018-11-06T11:46:36.254Z,17.87
2018-11-06T11:47:36.161Z,17.88
2018-11-06T11:48:36.094Z,17.88
2018-11-06T11:49:36.014Z,17.84
2018-11-06T11:50:35.973Z,17.82
2018-11-06T11:51:35.862Z,17.67
2018-11-06T11:52:35.881Z,17.71
2018-11-06T11:53:35.710Z,17.67
2018-11-06T11:54:35.691Z,17.70
2018-11-06T11:55:35.566Z,17.69
2018-11-06T11:56:35.603Z,17.76
2018-11-06T11:57:35.416Z,17.81
2018-11-06T11:58:35.411Z,17.84
2018-11-06T11:59:35.268Z,17.95
2018-11-06T12:00:35.235Z,17.94
2018-11-06T12:01:35.119Z,18.00
2018-11-06T12:02:35.129Z,18.02
2018-11-06T12:03:34.970Z,17.92
2018-11-06T12:04:34.939Z,18.02
2018-11-06T12:05:34.822Z,17.94
2018-11-06T12:06:34.850Z,17.98
2018-11-06T12:07:34.673Z,18.02
2018-11-06T12:08:34.657Z,17.95
2018-11-06T12:09:34.522Z,17.95
2018-11-06T12:10:34.468Z,17.94
2018-11-06T12:11:34.376Z,18.09
2018-11-06T12:12:34.380Z,18.06
2018-11-06T12:13:34.226Z,18.02
2018-11-06T12:14:34.191Z,18.10
2018-11-06T12:15:34.077Z,18.04
2018-11-06T12:16:34.097Z,18.11
2018-11-06T12:17:33.930Z,18.11
2018-11-06T12:18:33.916Z,18.21
2018-11-06T12:19:33.784Z,18.19
2018-11-06T12:20:33.819Z,18.11
2018-11-06T12:21:33.632Z,18.19
2018-11-06T12:22:33.634Z,18.24
2018-11-06T12:23:33.486Z,18.25
2018-11-06T12:24:33.473Z,18.35
2018-11-06T12:25:33.494Z,18.40
2018-11-06T12:26:33.345Z,18.31
2018-11-06T12:27:33.187Z,18.27
2018-11-06T12:28:33.153Z,18.28
2018-11-06T12:29:33.040Z,18.27
2018-11-06T12:30:33.065Z,18.29
2018-11-06T12:31:32.893Z,18.25
2018-11-06T12:32:32.918Z,18.31
2018-11-06T12:33:32.747Z,18.25
2018-11-06T12:34:32.782Z,18.29
2018-11-06T12:35:32.597Z,18.35
2018-11-06T12:36:32.662Z,18.29
2018-11-06T12:37:32.450Z,18.28
2018-11-06T12:38:32.400Z,18.42
2018-11-06T12:39:32.299Z,18.40
2018-11-06T12:40:32.310Z,18.55
2018-11-06T12:41:32.152Z,18.55
2018-11-06T12:42:32.120Z,18.55
2018-11-06T12:43:32.091Z,18.68
2018-11-06T12:44:32.033Z,18.67
2018-11-06T12:45:31.859Z,18.84
2018-11-06T12:46:31.838Z,18.87
2018-11-06T12:47:31.709Z,18.89
2018-11-06T12:48:31.749Z,18.95
2018-11-06T12:49:31.565Z,18.95
2018-11-06T12:50:31.561Z,18.98
2018-11-06T12:51:31.416Z,19.01
2018-11-06T12:52:31.367Z,19.02
2018-11-06T12:53:31.272Z,19.05
2018-11-06T12:54:31.277Z,19.02
2018-11-06T12:55:31.123Z,19.02
2018-11-06T12:56:31.088Z,19.13
2018-11-06T12:57:30.978Z,19.02
2018-11-06T12:58:30.997Z,18.97
2018-11-06T12:59:30.827Z,19.01
2018-11-06T13:00:30.806Z,19.01
2018-11-06T13:01:30.679Z,18.97
2018-11-06T13:02:30.720Z,18.94
2018-11-06T13:03:30.595Z,18.94
2018-11-06T13:04:30.525Z,18.86
2018-11-06T13:05:30.387Z,18.80
2018-11-06T13:06:30.336Z,18.79